createdAt,value
2023-03-12T00:01:19.496Z,100.00
2023-03-12T00:03:47.360Z,100.00
2023-03-12T00:06:14.575Z,100.00
2023-03-12T00:08:41.784Z,100.00
2023-03-12T00:11:10.738Z,100.00
2023-03-12T00:13:38.116Z,100.00
2023-03-12T00:16:10.442Z,100.00
2023-03-12T00:18:37.553Z,100.00
2023-03-12T00:21:05.753Z,100.00
2023-03-12T00:23:32.817Z,100.00
2023-03-12T00:26:04.966Z,100.00
2023-03-12T00:28:31.817Z,100.00
2023-03-12T00:30:58.637Z,100.00
2023-03-12T00:33:26.095Z,100.00
2023-03-12T00:35:53.927Z,100.00
2023-03-12T00:38:20.504Z,100.00
2023-03-12T00:40:47.332Z,100.00
2023-03-12T00:43:14.903Z,100.00
2023-03-12T00:45:41.422Z,100.00
2023-03-12T00:48:07.889Z,100.00
2023-03-12T00:50:34.316Z,100.00
2023-03-12T00:53:00.873Z,100.00
2023-03-12T00:55:27.594Z,100.00
2023-03-12T00:57:54.262Z,100.00
2023-03-12T01:00:21.369Z,100.00
2023-03-12T01:02:48.186Z,100.00
2023-03-12T01:05:15.548Z,100.00
2023-03-12T01:07:42.717Z,100.00
2023-03-12T01:10:11.871Z,100.00
2023-03-12T01:12:38.586Z,100.00
2023-03-12T01:15:05.828Z,100.00
2023-03-12T01:17:32.274Z,100.00
2023-03-12T01:19:58.833Z,100.00
2023-03-12T01:22:25.528Z,100.00
2023-03-12T01:24:51.973Z,100.00
2023-03-12T01:27:18.505Z,100.00
2023-03-12T01:29:45.330Z,100.00
2023-03-12T01:32:11.863Z,100.00
2023-03-12T01:34:38.333Z,100.00
2023-03-12T01:37:05.157Z,100.00
2023-03-12T01:39:31.625Z,100.00
2023-03-12T01:41:58.205Z,100.00
2023-03-12T01:44:24.779Z,100.00
2023-03-12T01:46:51.203Z,100.00
2023-03-12T01:49:33.345Z,100.00
2023-03-12T01:52:04.789Z,100.00
2023-03-12T01:54:37.551Z,100.00
2023-03-12T01:57:06.376Z,100.00
2023-03-12T01:59:39.142Z,100.00
2023-03-12T02:02:06.955Z,100.00
2023-03-12T02:04:34.872Z,100.00
2023-03-12T02:07:08.703Z,100.00
2023-03-12T02:09:39.894Z,100.00
2023-03-12T02:12:07.913Z,100.00
2023-03-12T02:14:34.990Z,100.00
2023-03-12T02:17:02.511Z,100.00
2023-03-12T02:20:12.813Z,100.00
2023-03-12T02:22:42.504Z,100.00
2023-03-12T02:25:36.709Z,100.00
2023-03-12T02:28:07.551Z,100.00
2023-03-12T02:30:34.300Z,100.00
2023-03-12T02:33:05.506Z,100.00
2023-03-12T02:35:32.408Z,100.00
2023-03-12T02:37:59.133Z,100.00
2023-03-12T02:40:39.290Z,100.00
2023-03-12T02:43:07.775Z,100.00
2023-03-12T02:45:36.985Z,100.00
2023-03-12T02:48:08.214Z,100.00
2023-03-12T02:50:34.645Z,100.00
2023-03-12T02:53:01.079Z,100.00
2023-03-12T02:55:27.624Z,100.00
2023-03-12T02:57:54.097Z,100.00
2023-03-12T03:00:21.099Z,100.00
2023-03-12T03:02:47.625Z,100.00
2023-03-12T03:05:14.241Z,100.00
2023-03-12T03:07:40.943Z,100.00
2023-03-12T03:10:08.516Z,100.00
2023-03-12T03:12:36.747Z,100.00
2023-03-12T03:15:05.085Z,100.00
2023-03-12T03:17:31.945Z,100.00
2023-03-12T03:19:58.591Z,100.00
2023-03-12T03:22:25.240Z,100.00
2023-03-12T03:24:53.344Z,100.00
2023-03-12T03:27:20.096Z,100.00
2023-03-12T03:29:46.821Z,100.00
2023-03-12T03:32:13.359Z,100.00
2023-03-12T03:34:40.040Z,100.00
2023-03-12T03:37:06.717Z,100.00
2023-03-12T03:39:33.298Z,100.00
2023-03-12T03:42:00.118Z,100.00
2023-03-12T03:44:26.604Z,100.00
2023-03-12T03:46:53.560Z,100.00
2023-03-12T03:49:20.099Z,100.00
2023-03-12T03:51:46.925Z,100.00
2023-03-12T03:54:13.713Z,100.00
2023-03-12T03:56:40.983Z,100.00
2023-03-12T03:59:07.511Z,100.00
2023-03-12T04:01:34.063Z,100.00
2023-03-12T04:04:00.819Z,100.00
2023-03-12T04:06:27.374Z,100.00
2023-03-12T04:08:53.905Z,100.00
2023-03-12T04:11:21.986Z,100.00
2023-03-12T04:13:49.637Z,100.00
2023-03-12T04:16:17.003Z,100.00
2023-03-12T04:18:44.558Z,100.00
2023-03-12T04:21:13.357Z,100.00
2023-03-12T04:23:40.259Z,100.00
2023-03-12T04:26:07.838Z,100.00
2023-03-12T04:28:35.281Z,100.00
2023-03-12T04:31:04.645Z,100.00
2023-03-12T04:33:34.753Z,100.00
2023-03-12T04:36:01.527Z,100.00
2023-03-12T04:38:28.671Z,100.00
2023-03-12T04:41:07.492Z,100.00
2023-03-12T04:43:34.757Z,100.00
2023-03-12T04:46:02.086Z,100.00
2023-03-12T04:48:28.871Z,100.00
2023-03-12T04:50:55.712Z,100.00
2023-03-12T04:53:22.777Z,100.00
2023-03-12T04:55:49.311Z,100.00
2023-03-12T04:58:16.722Z,100.00
2023-03-12T05:00:43.502Z,100.00
2023-03-12T05:03:10.094Z,100.00
2023-03-12T05:05:36.768Z,100.00
2023-03-12T05:08:04.729Z,100.00
2023-03-12T05:10:31.976Z,100.00
2023-03-12T05:12:58.836Z,100.00
2023-03-12T05:15:25.994Z,100.00
2023-03-12T05:17:54.767Z,100.00
2023-03-12T05:20:21.504Z,100.00
2023-03-12T05:22:48.081Z,100.00
2023-03-12T05:25:14.627Z,100.00
2023-03-12T05:27:41.085Z,100.00
2023-03-12T05:30:08.233Z,100.00
2023-03-12T05:32:34.743Z,100.00
2023-03-12T05:35:01.421Z,100.00
2023-03-12T05:37:28.274Z,100.00
2023-03-12T05:39:54.922Z,100.00
2023-03-12T05:42:21.518Z,100.00
2023-03-12T05:44:47.976Z,100.00
2023-03-12T05:47:14.392Z,100.00
2023-03-12T05:49:40.871Z,100.00
2023-03-12T05:52:07.486Z,100.00
2023-03-12T05:54:34.287Z,100.00
2023-03-12T05:57:00.809Z,100.00
2023-03-12T05:59:27.376Z,100.00
2023-03-12T06:01:53.978Z,100.00
2023-03-12T06:04:20.529Z,100.00
2023-03-12T06:06:47.940Z,100.00
2023-03-12T06:09:14.366Z,100.00
2023-03-12T06:11:40.919Z,100.00
2023-03-12T06:14:07.334Z,100.00
2023-03-12T06:16:33.784Z,100.00
2023-03-12T06:19:02.389Z,100.00
2023-03-12T06:21:32.120Z,100.00
2023-03-12T06:23:59.377Z,100.00
2023-03-12T06:26:26.738Z,100.00
2023-03-12T06:28:54.426Z,100.00
2023-03-12T06:31:22.410Z,100.00
2023-03-12T06:33:49.002Z,100.00
2023-03-12T06:36:15.556Z,100.00
2023-03-12T06:38:41.992Z,100.00
2023-03-12T06:41:15.113Z,100.00
2023-03-12T06:43:42.751Z,100.00
2023-03-12T06:46:13.166Z,100.00
2023-03-12T06:48:39.778Z,100.00
2023-03-12T06:51:09.978Z,100.00
2023-03-12T06:53:36.711Z,100.00
2023-03-12T06:56:04.334Z,100.00
2023-03-12T06:58:31.396Z,100.00
2023-03-12T07:00:58.130Z,100.00
2023-03-12T07:03:25.398Z,100.00
2023-03-12T07:05:52.148Z,100.00
2023-03-12T07:08:18.804Z,100.00
2023-03-12T07:10:46.574Z,100.00
2023-03-12T07:13:13.714Z,100.00
2023-03-12T07:15:40.580Z,100.00
2023-03-12T07:18:12.048Z,100.00
2023-03-12T07:20:42.603Z,100.00
2023-03-12T07:23:09.354Z,100.00
2023-03-12T07:25:38.011Z,100.00
2023-03-12T07:28:04.675Z,100.00
2023-03-12T07:30:31.360Z,100.00
2023-03-12T07:32:58.147Z,100.00
2023-03-12T07:35:24.828Z,100.00
2023-03-12T07:37:51.324Z,100.00
2023-03-12T07:40:18.043Z,100.00
2023-03-12T07:42:44.576Z,100.00
2023-03-12T07:45:11.541Z,100.00
2023-03-12T07:47:38.247Z,100.00
2023-03-12T07:50:05.130Z,100.00
2023-03-12T07:52:31.882Z,100.00
2023-03-12T07:54:58.667Z,100.00
2023-03-12T07:57:25.322Z,97.39
2023-03-12T07:59:52.450Z,64.77
2023-03-12T08:02:19.218Z,63.66
2023-03-12T08:04:46.936Z,64.49
2023-03-12T08:07:14.264Z,63.21
2023-03-12T08:09:41.553Z,63.26
2023-03-12T08:12:08.900Z,62.08
2023-03-12T08:14:36.397Z,61.55
2023-03-12T08:17:02.991Z,61.50
2023-03-12T08:19:29.422Z,62.24
2023-03-12T08:21:55.824Z,59.95
2023-03-12T08:24:22.424Z,60.69
2023-03-12T08:26:48.974Z,60.67
2023-03-12T08:29:17.371Z,60.81
2023-03-12T08:32:01.562Z,62.40
2023-03-12T08:34:30.623Z,60.94
2023-03-12T08:36:57.592Z,61.96
2023-03-12T08:39:24.171Z,60.29
2023-03-12T08:41:50.637Z,61.70
2023-03-12T08:44:17.203Z,62.30
2023-03-12T08:46:43.603Z,60.05
2023-03-12T08:49:13.466Z,60.37
2023-03-12T08:51:40.114Z,61.36
2023-03-12T08:54:06.559Z,62.00
2023-03-12T08:56:33.298Z,60.23
2023-03-12T08:58:59.946Z,59.03
2023-03-12T09:01:26.485Z,58.88
2023-03-12T09:03:52.944Z,60.35
2023-03-12T09:06:19.730Z,60.08
2023-03-12T09:08:46.931Z,60.92
2023-03-12T09:11:15.572Z,58.40
2023-03-12T09:14:03.953Z,56.55
2023-03-12T09:16:29.743Z,57.04
2023-03-12T09:18:56.366Z,55.73
2023-03-12T09:21:22.920Z,58.02
2023-03-12T09:23:49.336Z,55.05
2023-03-12T09:26:15.916Z,54.17
2023-03-12T09:28:42.446Z,55.36
2023-03-12T09:31:09.062Z,54.32
2023-03-12T09:33:35.532Z,52.12
2023-03-12T09:36:02.863Z,54.51
2023-03-12T09:38:30.358Z,54.30
2023-03-12T09:40:56.895Z,52.85
2023-03-12T09:43:31.701Z,54.09
2023-03-12T09:45:59.812Z,51.79
2023-03-12T09:48:32.579Z,50.70
2023-03-12T09:51:02.885Z,50.00
2023-03-12T09:53:40.023Z,49.79
2023-03-12T09:56:14.568Z,50.03
2023-03-12T09:58:41.385Z,51.16
2023-03-12T10:01:18.855Z,50.95
2023-03-12T10:03:51.592Z,51.59
2023-03-12T10:06:35.397Z,51.47
2023-03-12T10:09:20.832Z,48.63
2023-03-12T10:12:09.698Z,48.61
2023-03-12T10:14:48.513Z,49.02
2023-03-12T10:17:15.189Z,49.43
2023-03-12T10:19:56.066Z,49.56
2023-03-12T10:22:49.684Z,48.97
2023-03-12T10:25:19.092Z,48.96
2023-03-12T10:27:50.405Z,49.22
2023-03-12T10:30:18.699Z,48.42
2023-03-12T10:33:01.135Z,49.45
2023-03-12T10:35:29.293Z,50.18
2023-03-12T10:38:04.569Z,49.93
2023-03-12T10:40:36.701Z,49.32
2023-03-12T10:43:04.699Z,49.10
2023-03-12T10:45:34.731Z,49.23
2023-03-12T10:48:07.680Z,49.35
2023-03-12T10:50:38.096Z,50.08
2023-03-12T10:53:22.057Z,49.48
2023-03-12T10:56:01.580Z,49.19
2023-03-12T10:58:33.499Z,48.73
2023-03-12T11:01:02.017Z,46.96
2023-03-12T11:03:29.771Z,47.58
2023-03-12T11:05:59.667Z,47.68
2023-03-12T11:08:29.526Z,48.99
2023-03-12T11:10:58.513Z,49.57
2023-03-12T11:13:29.561Z,49.42
2023-03-12T11:15:58.868Z,48.28
2023-03-12T11:18:35.575Z,47.21
2023-03-12T11:21:11.203Z,48.23
2023-03-12T11:23:41.235Z,49.09
2023-03-12T11:26:23.327Z,48.65
2023-03-12T11:29:01.314Z,47.79
2023-03-12T11:31:37.726Z,47.77
2023-03-12T11:34:27.790Z,48.19
2023-03-12T11:37:19.220Z,49.32
2023-03-12T11:40:17.408Z,47.64
2023-03-12T11:43:09.050Z,47.67
2023-03-12T11:45:54.904Z,48.15
2023-03-12T11:48:42.376Z,44.78
2023-03-12T11:51:17.969Z,45.25
2023-03-12T11:53:53.703Z,45.35
2023-03-12T11:56:33.909Z,44.51
2023-03-12T11:59:23.061Z,45.13
2023-03-12T12:02:11.151Z,46.41
2023-03-12T12:05:15.027Z,46.97
2023-03-12T12:08:03.084Z,45.91
2023-03-12T12:10:54.415Z,45.66
2023-03-12T12:13:27.315Z,45.93
2023-03-12T12:16:21.661Z,45.37
2023-03-12T12:18:57.684Z,45.16
2023-03-12T12:21:49.427Z,45.55
2023-03-12T12:24:28.430Z,44.75
2023-03-12T12:27:15.132Z,45.10
2023-03-12T12:30:09.948Z,44.81
2023-03-12T12:32:42.854Z,44.03
2023-03-12T12:35:41.543Z,43.97
2023-03-12T12:38:23.290Z,44.73
2023-03-12T12:40:49.723Z,45.26
2023-03-12T12:43:39.414Z,44.36
2023-03-12T12:46:16.198Z,44.45
2023-03-12T12:48:48.685Z,43.94
2023-03-12T12:51:19.898Z,43.93
2023-03-12T12:53:46.368Z,43.98
2023-03-12T12:56:20.076Z,43.73
2023-03-12T12:59:25.087Z,43.82
2023-03-12T13:01:55.374Z,43.44
2023-03-12T13:04:27.046Z,42.78
2023-03-12T13:07:00.850Z,43.33
2023-03-12T13:09:38.346Z,43.55
2023-03-12T13:12:33.584Z,43.26
2023-03-12T13:15:02.459Z,42.47
2023-03-12T13:17:30.469Z,43.63
2023-03-12T13:20:11.780Z,43.11
2023-03-12T13:22:53.665Z,43.32
2023-03-12T13:25:39.878Z,43.96
2023-03-12T13:28:30.399Z,42.93
2023-03-12T13:30:59.537Z,41.83
2023-03-12T13:33:46.713Z,41.22
2023-03-12T13:36:16.127Z,40.74
2023-03-12T13:39:06.029Z,41.25
2023-03-12T13:41:46.199Z,41.91
2023-03-12T13:44:32.293Z,42.45
2023-03-12T13:47:10.953Z,41.99
2023-03-12T13:49:56.504Z,42.06
2023-03-12T13:52:26.690Z,41.80
2023-03-12T13:55:14.562Z,42.15
2023-03-12T13:57:45.651Z,42.69
2023-03-12T14:00:21.395Z,42.86
2023-03-12T14:02:59.841Z,42.83
2023-03-12T14:05:28.392Z,43.09
2023-03-12T14:08:03.877Z,42.83
2023-03-12T14:10:43.960Z,42.94
2023-03-12T14:13:25.819Z,42.11
2023-03-12T14:16:16.262Z,42.15
2023-03-12T14:18:45.670Z,42.61
2023-03-12T14:21:16.473Z,41.89
2023-03-12T14:24:05.662Z,42.60
2023-03-12T14:26:35.505Z,43.20
2023-03-12T14:29:11.008Z,43.09
2023-03-12T14:31:38.657Z,43.02
2023-03-12T14:34:20.789Z,41.98
2023-03-12T14:37:15.606Z,41.50
2023-03-12T14:39:50.831Z,40.32
2023-03-12T14:42:36.697Z,40.78
2023-03-12T14:45:06.175Z,39.50
2023-03-12T14:47:40.536Z,39.77
2023-03-12T14:50:07.722Z,38.20
2023-03-12T14:52:34.260Z,37.84
2023-03-12T14:55:04.773Z,37.35
2023-03-12T14:57:31.353Z,38.53
2023-03-12T15:00:00.449Z,38.58
2023-03-12T15:02:31.651Z,38.78
2023-03-12T15:05:01.381Z,38.93
2023-03-12T15:07:33.055Z,38.97
2023-03-12T15:10:00.766Z,38.33
2023-03-12T15:12:34.104Z,38.82
2023-03-12T15:15:06.485Z,37.88
2023-03-12T15:17:34.527Z,37.52
2023-03-12T15:20:05.055Z,37.74
2023-03-12T15:22:32.769Z,39.15
2023-03-12T15:25:15.488Z,36.71
2023-03-12T15:27:42.037Z,37.32
2023-03-12T15:30:26.514Z,37.18
2023-03-12T15:33:03.973Z,38.09
2023-03-12T15:35:31.215Z,38.37
2023-03-12T15:37:58.127Z,38.04
2023-03-12T15:40:30.688Z,38.41
2023-03-12T15:42:59.664Z,38.43
2023-03-12T15:45:36.049Z,38.87
2023-03-12T15:48:05.836Z,38.76
2023-03-12T15:50:44.034Z,38.32
2023-03-12T15:53:13.889Z,38.62
2023-03-12T15:55:41.259Z,39.22
2023-03-12T15:58:26.419Z,39.24
2023-03-12T16:00:53.365Z,39.48
2023-03-12T16:03:21.960Z,39.96
2023-03-12T16:05:51.574Z,40.38
2023-03-12T16:08:22.627Z,40.66
2023-03-12T16:10:50.312Z,40.98
2023-03-12T16:13:19.038Z,41.03
2023-03-12T16:15:47.814Z,41.25
2023-03-12T16:18:17.608Z,41.31
2023-03-12T16:20:45.434Z,41.51
2023-03-12T16:23:13.137Z,41.66
2023-03-12T16:25:43.522Z,41.60
2023-03-12T16:28:14.592Z,41.51
2023-03-12T16:30:41.192Z,41.71
2023-03-12T16:33:09.485Z,41.96
2023-03-12T16:35:36.361Z,42.13
2023-03-12T16:38:03.693Z,42.22
2023-03-12T16:40:35.453Z,42.41
2023-03-12T16:43:04.148Z,42.36
2023-03-12T16:45:33.940Z,42.54
2023-03-12T16:48:05.017Z,42.37
2023-03-12T16:50:31.798Z,42.25
2023-03-12T16:52:58.617Z,42.48
2023-03-12T16:55:30.488Z,42.38
2023-03-12T16:58:01.617Z,42.58
2023-03-12T17:00:31.047Z,42.79
2023-03-12T17:02:59.023Z,42.95
2023-03-12T17:05:27.789Z,43.03
2023-03-12T17:07:55.189Z,43.18
2023-03-12T17:10:23.656Z,43.41
2023-03-12T17:12:50.879Z,43.77
2023-03-12T17:15:21.304Z,44.04
2023-03-12T17:17:49.252Z,44.57
2023-03-12T17:20:19.097Z,44.80
2023-03-12T17:22:46.433Z,44.85
2023-03-12T17:25:26.281Z,44.97
2023-03-12T17:27:53.541Z,45.18
2023-03-12T17:30:20.508Z,45.20
2023-03-12T17:32:47.027Z,45.23
2023-03-12T17:35:14.242Z,45.30
2023-03-12T17:37:40.863Z,45.72
2023-03-12T17:40:08.563Z,45.77
2023-03-12T17:42:36.023Z,46.09
2023-03-12T17:45:07.339Z,46.25
2023-03-12T17:47:34.000Z,46.91
2023-03-12T17:50:00.555Z,46.83
2023-03-12T17:52:27.076Z,46.79
2023-03-12T17:54:53.778Z,47.00
2023-03-12T17:57:20.298Z,47.66
2023-03-12T17:59:46.731Z,48.28
2023-03-12T18:02:14.125Z,47.47
2023-03-12T18:04:41.029Z,47.18
2023-03-12T18:07:07.894Z,47.48
2023-03-12T18:09:34.353Z,47.86
2023-03-12T18:12:01.016Z,47.87
2023-03-12T18:14:28.446Z,47.88
2023-03-12T18:16:54.871Z,48.62
2023-03-12T18:19:21.585Z,48.84
2023-03-12T18:21:48.181Z,49.19
2023-03-12T18:24:15.130Z,49.26
2023-03-12T18:26:41.979Z,49.08
2023-03-12T18:29:08.522Z,49.33
2023-03-12T18:31:34.965Z,49.37
2023-03-12T18:34:01.577Z,49.35
2023-03-12T18:36:28.261Z,49.54
2023-03-12T18:38:54.919Z,49.53
2023-03-12T18:41:21.559Z,49.59
2023-03-12T18:43:48.229Z,49.88
2023-03-12T18:46:14.734Z,49.84
2023-03-12T18:48:43.971Z,50.12
2023-03-12T18:51:11.036Z,50.13
2023-03-12T18:53:37.513Z,50.50
2023-03-12T18:56:04.637Z,50.48
2023-03-12T18:58:31.058Z,50.55
2023-03-12T19:00:58.562Z,50.90
2023-03-12T19:03:26.314Z,50.90
2023-03-12T19:06:04.737Z,50.93
2023-03-12T19:08:31.698Z,51.02
2023-03-12T19:10:58.369Z,51.08
2023-03-12T19:13:25.411Z,51.31
2023-03-12T19:15:58.636Z,51.13
2023-03-12T19:18:25.342Z,51.38
2023-03-12T19:20:51.796Z,51.61
2023-03-12T19:23:18.572Z,51.20
2023-03-12T19:25:45.292Z,52.22
2023-03-12T19:28:11.929Z,52.25
2023-03-12T19:30:38.488Z,52.62
2023-03-12T19:33:05.144Z,53.10
2023-03-12T19:35:32.060Z,52.74
2023-03-12T19:37:58.738Z,52.58
2023-03-12T19:40:26.072Z,52.83
2023-03-12T19:42:52.543Z,52.94
2023-03-12T19:45:19.091Z,52.75
2023-03-12T19:47:45.718Z,52.81
2023-03-12T19:50:12.585Z,53.01
2023-03-12T19:52:39.229Z,53.21
2023-03-12T19:55:05.983Z,53.07
2023-03-12T19:57:33.988Z,53.34
2023-03-12T20:00:00.711Z,54.21
2023-03-12T20:02:27.545Z,53.83
2023-03-12T20:04:54.475Z,53.92
2023-03-12T20:07:21.060Z,54.01
2023-03-12T20:09:47.531Z,54.04
2023-03-12T20:12:14.059Z,53.85
2023-03-12T20:14:42.760Z,53.84
2023-03-12T20:17:10.031Z,53.96
2023-03-12T20:19:36.665Z,54.41
2023-03-12T20:22:03.392Z,54.51
2023-03-12T20:24:30.127Z,54.62
2023-03-12T20:26:56.889Z,54.42
2023-03-12T20:29:24.048Z,55.07
2023-03-12T20:31:51.019Z,56.01
2023-03-12T20:34:19.087Z,55.90
2023-03-12T20:36:45.632Z,56.11
2023-03-12T20:39:12.201Z,55.55
2023-03-12T20:41:39.150Z,55.62
2023-03-12T20:44:05.607Z,55.77
2023-03-12T20:46:32.344Z,56.43
2023-03-12T20:48:58.981Z,55.99
2023-03-12T20:51:25.775Z,56.91
2023-03-12T20:53:52.478Z,56.78
2023-03-12T20:56:19.029Z,56.54
2023-03-12T20:58:45.549Z,56.56
2023-03-12T21:01:12.104Z,56.21
2023-03-12T21:03:38.584Z,56.31
2023-03-12T21:06:05.719Z,56.25
2023-03-12T21:08:36.496Z,56.35
2023-03-12T21:11:07.418Z,56.39
2023-03-12T21:13:34.473Z,56.42
2023-03-12T21:16:00.906Z,56.67
2023-03-12T21:18:27.561Z,56.57
2023-03-12T21:20:54.453Z,56.92
2023-03-12T21:23:21.493Z,56.97
2023-03-12T21:25:48.124Z,56.80
2023-03-12T21:28:15.100Z,56.87
2023-03-12T21:30:41.544Z,56.86
2023-03-12T21:33:08.154Z,57.08
2023-03-12T21:35:34.628Z,56.81
2023-03-12T21:38:01.234Z,57.11
2023-03-12T21:40:27.989Z,57.07
2023-03-12T21:42:54.529Z,57.20
2023-03-12T21:45:20.933Z,57.61
2023-03-12T21:47:47.437Z,57.73
2023-03-12T21:50:13.967Z,57.78
2023-03-12T21:52:43.368Z,58.04
2023-03-12T21:55:11.048Z,58.12
2023-03-12T21:57:37.595Z,57.87
2023-03-12T22:00:05.150Z,57.73
2023-03-12T22:02:32.176Z,58.44
2023-03-12T22:04:59.597Z,58.07
2023-03-12T22:07:26.133Z,58.26
2023-03-12T22:09:52.732Z,58.18
2023-03-12T22:12:19.153Z,58.02
2023-03-12T22:14:45.722Z,58.34
2023-03-12T22:17:12.202Z,58.79
2023-03-12T22:19:40.379Z,58.56
2023-03-12T22:22:09.097Z,58.64
2023-03-12T22:24:35.588Z,59.31
2023-03-12T22:27:02.210Z,59.05
2023-03-12T22:29:29.250Z,58.75
2023-03-12T22:31:55.993Z,58.81
2023-03-12T22:34:22.527Z,58.59
2023-03-12T22:36:49.078Z,58.79
2023-03-12T22:39:18.607Z,58.89
2023-03-12T22:41:49.450Z,58.56
2023-03-12T22:44:16.271Z,58.67
2023-03-12T22:46:42.958Z,58.49
2023-03-12T22:49:09.528Z,58.33
2023-03-12T22:51:36.029Z,59.13
2023-03-12T22:54:02.626Z,59.26
2023-03-12T22:56:29.442Z,59.02
2023-03-12T22:58:55.972Z,59.14
2023-03-12T23:01:23.745Z,59.23
2023-03-12T23:03:50.713Z,60.09
2023-03-12T23:06:26.303Z,61.58
2023-03-12T23:08:54.138Z,60.23
2023-03-12T23:11:20.829Z,60.46
2023-03-12T23:13:47.791Z,59.97
2023-03-12T23:16:18.189Z,59.95
2023-03-12T23:18:45.739Z,59.71
2023-03-12T23:21:21.188Z,60.01
2023-03-12T23:23:48.436Z,60.24
2023-03-12T23:26:18.346Z,60.16
2023-03-12T23:28:44.996Z,60.53
2023-03-12T23:31:11.550Z,60.19
2023-03-12T23:33:38.305Z,60.47
2023-03-12T23:36:14.494Z,60.21
2023-03-12T23:38:41.005Z,60.17
2023-03-12T23:41:15.172Z,60.27
2023-03-12T23:43:42.129Z,60.18
2023-03-12T23:46:10.468Z,59.86
2023-03-12T23:48:38.597Z,60.46
2023-03-12T23:51:16.113Z,60.06
2023-03-12T23:53:44.841Z,59.95
2023-03-12T23:56:17.664Z,59.99
2023-03-12T23:58:44.539Z,60.00
